sensor_id;sensor_type;location;lat;lon;timestamp;P1;durP1;ratioP1;P2;durP2;ratioP2
8046;SDS011;74083;42.516;23.358;2024-02-28T00:01:50;19.27;;;14.53;;
8046;SDS011;74083;42.516;23.358;2024-02-28T00:04:37;20.67;;;14.00;;
8046;SDS011;74083;42.516;23.358;2024-02-28T00:07:25;17.83;;;14.53;;
8046;SDS011;74083;42.516;23.358;2024-02-28T00:10:11;22.10;;;15.70;;
8046;SDS011;74083;42.516;23.358;2024-02-28T00:12:57;18.43;;;14.37;;
8046;SDS011;74083;42.516;23.358;2024-02-28T00:15:43;19.73;;;14.63;;
8046;SDS011;74083;42.516;23.358;2024-02-28T00:18:30;16.70;;;14.23;;
8046;SDS011;74083;42.516;23.358;2024-02-28T00:21:16;19.73;;;14.80;;
8046;SDS011;74083;42.516;23.358;2024-02-28T00:24:01;19.23;;;14.00;;
8046;SDS011;74083;42.516;23.358;2024-02-28T00:26:48;20.57;;;16.23;;
8046;SDS011;74083;42.516;23.358;2024-02-28T00:29:33;20.77;;;15.17;;
8046;SDS011;74083;42.516;23.358;2024-02-28T00:32:19;20.37;;;15.50;;
8046;SDS011;74083;42.516;23.358;2024-02-28T00:35:08;21.43;;;15.93;;
8046;SDS011;74083;42.516;23.358;2024-02-28T00:37:53;21.73;;;15.73;;
8046;SDS011;74083;42.516;23.358;2024-02-28T00:40:39;20.00;;;14.37;;
8046;SDS011;74083;42.516;23.358;2024-02-28T00:43:25;21.07;;;16.03;;
8046;SDS011;74083;42.516;23.358;2024-02-28T00:46:11;20.73;;;16.23;;
8046;SDS011;74083;42.516;23.358;2024-02-28T00:48:57;20.67;;;15.97;;
8046;SDS011;74083;42.516;23.358;2024-02-28T00:51:43;21.83;;;15.67;;
8046;SDS011;74083;42.516;23.358;2024-02-28T00:54:31;22.20;;;16.20;;
8046;SDS011;74083;42.516;23.358;2024-02-28T00:57:17;21.23;;;16.00;;
8046;SDS011;74083;42.516;23.358;2024-02-28T01:00:03;23.90;;;17.27;;
8046;SDS011;74083;42.516;23.358;2024-02-28T01:02:50;24.50;;;16.83;;
8046;SDS011;74083;42.516;23.358;2024-02-28T01:05:36;26.10;;;17.73;;
8046;SDS011;74083;42.516;23.358;2024-02-28T01:08:23;23.60;;;16.27;;
8046;SDS011;74083;42.516;23.358;2024-02-28T01:11:09;23.87;;;17.53;;
8046;SDS011;74083;42.516;23.358;2024-02-28T01:13:55;21.97;;;17.00;;
8046;SDS011;74083;42.516;23.358;2024-02-28T01:16:41;24.83;;;16.87;;
8046;SDS011;74083;42.516;23.358;2024-02-28T01:19:27;23.10;;;17.33;;
8046;SDS011;74083;42.516;23.358;2024-02-28T01:22:13;21.57;;;16.93;;
8046;SDS011;74083;42.516;23.358;2024-02-28T01:25:00;21.00;;;16.57;;
8046;SDS011;74083;42.516;23.358;2024-02-28T01:27:46;22.30;;;16.73;;
8046;SDS011;74083;42.516;23.358;2024-02-28T01:30:32;21.20;;;16.13;;
8046;SDS011;74083;42.516;23.358;2024-02-28T01:33:17;23.13;;;16.73;;
8046;SDS011;74083;42.516;23.358;2024-02-28T01:36:04;21.90;;;16.73;;
8046;SDS011;74083;42.516;23.358;2024-02-28T01:38:51;22.83;;;16.57;;
8046;SDS011;74083;42.516;23.358;2024-02-28T01:41:40;18.70;;;15.43;;
8046;SDS011;74083;42.516;23.358;2024-02-28T01:44:26;20.20;;;15.87;;
8046;SDS011;74083;42.516;23.358;2024-02-28T01:47:12;18.40;;;15.13;;
8046;SDS011;74083;42.516;23.358;2024-02-28T01:49:59;20.63;;;16.30;;
8046;SDS011;74083;42.516;23.358;2024-02-28T01:52:46;21.03;;;16.10;;
8046;SDS011;74083;42.516;23.358;2024-02-28T01:55:31;19.83;;;15.30;;
8046;SDS011;74083;42.516;23.358;2024-02-28T01:58:18;19.43;;;14.70;;
8046;SDS011;74083;42.516;23.358;2024-02-28T02:01:05;20.77;;;15.07;;
8046;SDS011;74083;42.516;23.358;2024-02-28T02:03:52;19.50;;;15.40;;
8046;SDS011;74083;42.516;23.358;2024-02-28T02:06:38;20.20;;;16.17;;
8046;SDS011;74083;42.516;23.358;2024-02-28T02:09:28;18.77;;;14.90;;
8046;SDS011;74083;42.516;23.358;2024-02-28T02:12:14;17.70;;;14.43;;
8046;SDS011;74083;42.516;23.358;2024-02-28T02:15:01;19.70;;;14.97;;
8046;SDS011;74083;42.516;23.358;2024-02-28T02:17:48;16.87;;;13.53;;
8046;SDS011;74083;42.516;23.358;2024-02-28T02:20:34;19.17;;;14.90;;
8046;SDS011;74083;42.516;23.358;2024-02-28T02:23:28;20.33;;;15.10;;
8046;SDS011;74083;42.516;23.358;2024-02-28T02:26:14;17.53;;;13.77;;
8046;SDS011;74083;42.516;23.358;2024-02-28T02:29:00;16.37;;;13.63;;
8046;SDS011;74083;42.516;23.358;2024-02-28T02:31:46;16.63;;;13.43;;
8046;SDS011;74083;42.516;23.358;2024-02-28T02:34:32;17.73;;;12.93;;
8046;SDS011;74083;42.516;23.358;2024-02-28T02:37:18;16.83;;;12.93;;
8046;SDS011;74083;42.516;23.358;2024-02-28T02:40:05;13.23;;;11.30;;
8046;SDS011;74083;42.516;23.358;2024-02-28T02:42:53;14.33;;;12.53;;
8046;SDS011;74083;42.516;23.358;2024-02-28T02:45:38;15.80;;;12.00;;
8046;SDS011;74083;42.516;23.358;2024-02-28T02:48:24;15.17;;;12.73;;
8046;SDS011;74083;42.516;23.358;2024-02-28T02:51:10;12.40;;;11.10;;
8046;SDS011;74083;42.516;23.358;2024-02-28T02:53:56;15.13;;;12.00;;
8046;SDS011;74083;42.516;23.358;2024-02-28T02:56:44;13.87;;;11.57;;
8046;SDS011;74083;42.516;23.358;2024-02-28T02:59:29;13.90;;;11.30;;
8046;SDS011;74083;42.516;23.358;2024-02-28T03:02:15;12.97;;;10.60;;
8046;SDS011;74083;42.516;23.358;2024-02-28T03:05:01;14.47;;;10.30;;
8046;SDS011;74083;42.516;23.358;2024-02-28T03:07:47;12.43;;;10.00;;
8046;SDS011;74083;42.516;23.358;2024-02-28T03:10:33;11.47;;;9.73;;
8046;SDS011;74083;42.516;23.358;2024-02-28T03:13:20;9.87;;;8.80;;
8046;SDS011;74083;42.516;23.358;2024-02-28T03:16:06;12.17;;;9.43;;
8046;SDS011;74083;42.516;23.358;2024-02-28T03:18:52;9.27;;;8.00;;
8046;SDS011;74083;42.516;23.358;2024-02-28T03:21:39;11.63;;;8.70;;
8046;SDS011;74083;42.516;23.358;2024-02-28T03:24:25;9.00;;;7.63;;
8046;SDS011;74083;42.516;23.358;2024-02-28T03:27:11;8.30;;;7.47;;
8046;SDS011;74083;42.516;23.358;2024-02-28T03:29:59;9.87;;;8.30;;
8046;SDS011;74083;42.516;23.358;2024-02-28T03:32:45;10.30;;;7.67;;
8046;SDS011;74083;42.516;23.358;2024-02-28T03:35:32;10.10;;;7.37;;
8046;SDS011;74083;42.516;23.358;2024-02-28T03:38:17;10.17;;;7.30;;
8046;SDS011;74083;42.516;23.358;2024-02-28T03:41:03;10.47;;;7.47;;
8046;SDS011;74083;42.516;23.358;2024-02-28T03:43:50;9.20;;;6.73;;
8046;SDS011;74083;42.516;23.358;2024-02-28T03:46:38;8.13;;;7.03;;
8046;SDS011;74083;42.516;23.358;2024-02-28T03:49:23;7.50;;;6.13;;
8046;SDS011;74083;42.516;23.358;2024-02-28T03:52:10;8.27;;;5.93;;
8046;SDS011;74083;42.516;23.358;2024-02-28T03:54:55;7.37;;;6.30;;
8046;SDS011;74083;42.516;23.358;2024-02-28T03:57:42;6.07;;;5.37;;
8046;SDS011;74083;42.516;23.358;2024-02-28T04:00:32;8.23;;;6.33;;
8046;SDS011;74083;42.516;23.358;2024-02-28T04:03:19;7.93;;;6.20;;
8046;SDS011;74083;42.516;23.358;2024-02-28T04:06:05;7.77;;;5.37;;
8046;SDS011;74083;42.516;23.358;2024-02-28T04:08:51;5.20;;;4.73;;
8046;SDS011;74083;42.516;23.358;2024-02-28T04:11:37;6.53;;;4.70;;
8046;SDS011;74083;42.516;23.358;2024-02-28T04:14:22;6.10;;;5.50;;
8046;SDS011;74083;42.516;23.358;2024-02-28T04:17:09;8.03;;;6.40;;
8046;SDS011;74083;42.516;23.358;2024-02-28T04:19:56;8.57;;;6.23;;
8046;SDS011;74083;42.516;23.358;2024-02-28T04:22:42;7.90;;;6.33;;
8046;SDS011;74083;42.516;23.358;2024-02-28T04:25:28;7.50;;;5.87;;
8046;SDS011;74083;42.516;23.358;2024-02-28T04:28:15;11.90;;;5.77;;
8046;SDS011;74083;42.516;23.358;2024-02-28T04:31:01;7.77;;;5.40;;
8046;SDS011;74083;42.516;23.358;2024-02-28T04:33:47;7.27;;;5.30;;
8046;SDS011;74083;42.516;23.358;2024-02-28T04:36:35;5.90;;;5.30;;
8046;SDS011;74083;42.516;23.358;2024-02-28T04:39:20;6.43;;;5.80;;
8046;SDS011;74083;42.516;23.358;2024-02-28T04:42:06;8.23;;;5.97;;
8046;SDS011;74083;42.516;23.358;2024-02-28T04:44:52;6.13;;;4.80;;
8046;SDS011;74083;42.516;23.358;2024-02-28T04:47:38;9.03;;;5.70;;
8046;SDS011;74083;42.516;23.358;2024-02-28T04:50:24;6.77;;;5.23;;
8046;SDS011;74083;42.516;23.358;2024-02-28T04:53:11;7.03;;;5.10;;
8046;SDS011;74083;42.516;23.358;2024-02-28T04:55:57;6.97;;;5.50;;
8046;SDS011;74083;42.516;23.358;2024-02-28T04:58:43;8.37;;;5.80;;
8046;SDS011;74083;42.516;23.358;2024-02-28T05:01:28;6.57;;;5.27;;
8046;SDS011;74083;42.516;23.358;2024-02-28T05:04:15;6.13;;;5.40;;
8046;SDS011;74083;42.516;23.358;2024-02-28T05:07:01;6.97;;;5.33;;
8046;SDS011;74083;42.516;23.358;2024-02-28T05:09:49;5.70;;;5.10;;
8046;SDS011;74083;42.516;23.358;2024-02-28T05:12:34;6.27;;;5.40;;
8046;SDS011;74083;42.516;23.358;2024-02-28T05:15:20;5.90;;;4.70;;
8046;SDS011;74083;42.516;23.358;2024-02-28T05:18:06;6.67;;;4.93;;
8046;SDS011;74083;42.516;23.358;2024-02-28T05:20:52;6.07;;;4.87;;
8046;SDS011;74083;42.516;23.358;2024-02-28T05:23:39;8.00;;;5.07;;
8046;SDS011;74083;42.516;23.358;2024-02-28T05:26:26;6.70;;;4.73;;
8046;SDS011;74083;42.516;23.358;2024-02-28T05:29:12;7.43;;;5.60;;
8046;SDS011;74083;42.516;23.358;2024-02-28T05:31:58;6.60;;;5.67;;
8046;SDS011;74083;42.516;23.358;2024-02-28T05:34:45;6.27;;;5.40;;
8046;SDS011;74083;42.516;23.358;2024-02-28T05:37:31;7.37;;;5.50;;
8046;SDS011;74083;42.516;23.358;2024-02-28T05:40:19;7.07;;;5.57;;
8046;SDS011;74083;42.516;23.358;2024-02-28T05:43:06;5.60;;;5.03;;
8046;SDS011;74083;42.516;23.358;2024-02-28T05:45:52;5.97;;;5.03;;
8046;SDS011;74083;42.516;23.358;2024-02-28T05:48:38;6.23;;;4.87;;
8046;SDS011;74083;42.516;23.358;2024-02-28T05:51:26;5.83;;;4.63;;
8046;SDS011;74083;42.516;23.358;2024-02-28T05:54:11;6.57;;;5.13;;
8046;SDS011;74083;42.516;23.358;2024-02-28T05:56:57;6.33;;;4.90;;
8046;SDS011;74083;42.516;23.358;2024-02-28T05:59:44;5.80;;;4.70;;
8046;SDS011;74083;42.516;23.358;2024-02-28T06:02:30;6.77;;;5.30;;
8046;SDS011;74083;42.516;23.358;2024-02-28T06:05:15;6.00;;;5.17;;
8046;SDS011;74083;42.516;23.358;2024-02-28T06:08:01;6.17;;;4.67;;
8046;SDS011;74083;42.516;23.358;2024-02-28T06:10:47;6.40;;;5.23;;
8046;SDS011;74083;42.516;23.358;2024-02-28T06:13:33;6.30;;;5.20;;
8046;SDS011;74083;42.516;23.358;2024-02-28T06:16:20;7.13;;;5.00;;
8046;SDS011;74083;42.516;23.358;2024-02-28T06:19:06;5.27;;;4.70;;
8046;SDS011;74083;42.516;23.358;2024-02-28T06:21:51;6.90;;;4.80;;
8046;SDS011;74083;42.516;23.358;2024-02-28T06:24:37;6.17;;;4.83;;
8046;SDS011;74083;42.516;23.358;2024-02-28T06:27:23;6.50;;;4.77;;
8046;SDS011;74083;42.516;23.358;2024-02-28T06:30:10;5.33;;;4.60;;
8046;SDS011;74083;42.516;23.358;2024-02-28T06:33:00;7.77;;;5.17;;
8046;SDS011;74083;42.516;23.358;2024-02-28T06:35:46;5.73;;;4.17;;
8046;SDS011;74083;42.516;23.358;2024-02-28T06:38:32;5.07;;;4.60;;
8046;SDS011;74083;42.516;23.358;2024-02-28T06:41:18;6.27;;;4.47;;
8046;SDS011;74083;42.516;23.358;2024-02-28T06:44:04;4.83;;;4.33;;
8046;SDS011;74083;42.516;23.358;2024-02-28T06:46:52;4.67;;;4.27;;
8046;SDS011;74083;42.516;23.358;2024-02-28T06:49:39;6.07;;;4.50;;
8046;SDS011;74083;42.516;23.358;2024-02-28T06:52:25;6.23;;;4.17;;
8046;SDS011;74083;42.516;23.358;2024-02-28T06:55:11;6.00;;;4.47;;
8046;SDS011;74083;42.516;23.358;2024-02-28T06:57:58;6.77;;;4.93;;
8046;SDS011;74083;42.516;23.358;2024-02-28T07:00:44;5.00;;;4.50;;
8046;SDS011;74083;42.516;23.358;2024-02-28T07:03:31;6.63;;;5.03;;
8046;SDS011;74083;42.516;23.358;2024-02-28T07:06:18;5.87;;;5.13;;
8046;SDS011;74083;42.516;23.358;2024-02-28T07:09:07;7.30;;;5.27;;
8046;SDS011;74083;42.516;23.358;2024-02-28T07:11:54;8.30;;;5.50;;
8046;SDS011;74083;42.516;23.358;2024-02-28T07:14:39;6.10;;;5.30;;
8046;SDS011;74083;42.516;23.358;2024-02-28T07:17:26;6.20;;;5.60;;
8046;SDS011;74083;42.516;23.358;2024-02-28T07:20:12;6.33;;;5.73;;
8046;SDS011;74083;42.516;23.358;2024-02-28T07:23:00;8.27;;;6.00;;
8046;SDS011;74083;42.516;23.358;2024-02-28T07:25:47;9.37;;;6.30;;
8046;SDS011;74083;42.516;23.358;2024-02-28T07:28:33;8.00;;;6.57;;
8046;SDS011;74083;42.516;23.358;2024-02-28T07:31:19;8.10;;;6.37;;
8046;SDS011;74083;42.516;23.358;2024-02-28T07:34:06;8.03;;;6.70;;
8046;SDS011;74083;42.516;23.358;2024-02-28T07:36:52;7.73;;;6.43;;
8046;SDS011;74083;42.516;23.358;2024-02-28T07:39:39;8.27;;;7.00;;
8046;SDS011;74083;42.516;23.358;2024-02-28T07:42:25;7.40;;;6.40;;
8046;SDS011;74083;42.516;23.358;2024-02-28T07:45:10;10.20;;;6.70;;
8046;SDS011;74083;42.516;23.358;2024-02-28T07:47:56;6.83;;;6.00;;
8046;SDS011;74083;42.516;23.358;2024-02-28T07:50:41;8.87;;;6.87;;
8046;SDS011;74083;42.516;23.358;2024-02-28T07:53:27;7.13;;;5.87;;
8046;SDS011;74083;42.516;23.358;2024-02-28T07:56:16;9.13;;;7.10;;
8046;SDS011;74083;42.516;23.358;2024-02-28T07:59:02;7.80;;;6.93;;
8046;SDS011;74083;42.516;23.358;2024-02-28T08:01:48;11.00;;;6.93;;
8046;SDS011;74083;42.516;23.358;2024-02-28T08:04:34;6.80;;;6.10;;
8046;SDS011;74083;42.516;23.358;2024-02-28T08:07:19;8.27;;;6.17;;
8046;SDS011;74083;42.516;23.358;2024-02-28T08:10:05;7.40;;;6.10;;
8046;SDS011;74083;42.516;23.358;2024-02-28T08:12:54;6.43;;;5.83;;
8046;SDS011;74083;42.516;23.358;2024-02-28T08:15:40;7.67;;;6.10;;
8046;SDS011;74083;42.516;23.358;2024-02-28T08:18:26;9.43;;;6.43;;
8046;SDS011;74083;42.516;23.358;2024-02-28T08:21:12;7.20;;;6.40;;
8046;SDS011;74083;42.516;23.358;2024-02-28T08:23:58;6.90;;;6.20;;
8046;SDS011;74083;42.516;23.358;2024-02-28T08:26:46;7.43;;;5.73;;
8046;SDS011;74083;42.516;23.358;2024-02-28T08:29:34;8.77;;;6.43;;
8046;SDS011;74083;42.516;23.358;2024-02-28T08:32:21;9.70;;;7.30;;
8046;SDS011;74083;42.516;23.358;2024-02-28T08:35:07;9.90;;;7.63;;
8046;SDS011;74083;42.516;23.358;2024-02-28T08:37:54;8.57;;;7.37;;
8046;SDS011;74083;42.516;23.358;2024-02-28T08:40:39;8.70;;;7.13;;
8046;SDS011;74083;42.516;23.358;2024-02-28T08:43:25;8.37;;;7.47;;
8046;SDS011;74083;42.516;23.358;2024-02-28T08:46:15;9.13;;;7.70;;
8046;SDS011;74083;42.516;23.358;2024-02-28T08:49:00;8.70;;;7.70;;
8046;SDS011;74083;42.516;23.358;2024-02-28T08:51:46;10.80;;;8.10;;
8046;SDS011;74083;42.516;23.358;2024-02-28T08:54:32;9.60;;;8.20;;
8046;SDS011;74083;42.516;23.358;2024-02-28T08:57:17;10.13;;;8.00;;
8046;SDS011;74083;42.516;23.358;2024-02-28T09:00:04;9.10;;;8.10;;
8046;SDS011;74083;42.516;23.358;2024-02-28T09:02:54;9.60;;;7.97;;
8046;SDS011;74083;42.516;23.358;2024-02-28T09:05:39;11.17;;;8.23;;
8046;SDS011;74083;42.516;23.358;2024-02-28T09:08:25;12.30;;;8.43;;
8046;SDS011;74083;42.516;23.358;2024-02-28T09:11:10;10.30;;;8.07;;
8046;SDS011;74083;42.516;23.358;2024-02-28T09:13:56;10.03;;;7.90;;
8046;SDS011;74083;42.516;23.358;2024-02-28T09:16:41;12.37;;;8.30;;
8046;SDS011;74083;42.516;23.358;2024-02-28T09:19:29;11.73;;;8.87;;
8046;SDS011;74083;42.516;23.358;2024-02-28T09:22:14;12.00;;;8.80;;
8046;SDS011;74083;42.516;23.358;2024-02-28T09:25:01;11.00;;;8.80;;
8046;SDS011;74083;42.516;23.358;2024-02-28T09:27:47;11.00;;;8.43;;
8046;SDS011;74083;42.516;23.358;2024-02-28T09:30:33;10.23;;;8.50;;
8046;SDS011;74083;42.516;23.358;2024-02-28T09:33:19;10.97;;;8.27;;
8046;SDS011;74083;42.516;23.358;2024-02-28T09:36:06;12.57;;;8.07;;
8046;SDS011;74083;42.516;23.358;2024-02-28T09:38:53;11.47;;;8.33;;
8046;SDS011;74083;42.516;23.358;2024-02-28T09:41:38;11.37;;;8.17;;
8046;SDS011;74083;42.516;23.358;2024-02-28T09:44:25;10.57;;;7.90;;
8046;SDS011;74083;42.516;23.358;2024-02-28T09:47:11;9.37;;;8.27;;
8046;SDS011;74083;42.516;23.358;2024-02-28T09:49:57;9.70;;;7.90;;
8046;SDS011;74083;42.516;23.358;2024-02-28T09:52:45;9.10;;;7.33;;
8046;SDS011;74083;42.516;23.358;2024-02-28T09:55:30;11.27;;;8.43;;
8046;SDS011;74083;42.516;23.358;2024-02-28T09:58:16;8.83;;;7.83;;
8046;SDS011;74083;42.516;23.358;2024-02-28T10:01:03;9.70;;;7.90;;
8046;SDS011;74083;42.516;23.358;2024-02-28T10:03:53;9.70;;;7.40;;
8046;SDS011;74083;42.516;23.358;2024-02-28T10:06:40;8.93;;;7.93;;
8046;SDS011;74083;42.516;23.358;2024-02-28T10:09:27;10.10;;;7.50;;
8046;SDS011;74083;42.516;23.358;2024-02-28T10:12:13;12.37;;;7.17;;
8046;SDS011;74083;42.516;23.358;2024-02-28T10:14:59;11.23;;;7.87;;
8046;SDS011;74083;42.516;23.358;2024-02-28T10:17:45;8.87;;;7.47;;
8046;SDS011;74083;42.516;23.358;2024-02-28T10:20:31;9.43;;;7.63;;
8046;SDS011;74083;42.516;23.358;2024-02-28T10:23:16;10.77;;;7.67;;
8046;SDS011;74083;42.516;23.358;2024-02-28T10:26:04;8.93;;;7.70;;
8046;SDS011;74083;42.516;23.358;2024-02-28T10:28:50;12.20;;;7.43;;
8046;SDS011;74083;42.516;23.358;2024-02-28T10:31:37;10.33;;;7.20;;
8046;SDS011;74083;42.516;23.358;2024-02-28T10:34:22;13.27;;;8.13;;
8046;SDS011;74083;42.516;23.358;2024-02-28T10:37:08;8.87;;;7.23;;
8046;SDS011;74083;42.516;23.358;2024-02-28T10:39:54;9.77;;;7.60;;
8046;SDS011;74083;42.516;23.358;2024-02-28T10:42:43;10.93;;;7.77;;
8046;SDS011;74083;42.516;23.358;2024-02-28T10:45:29;9.90;;;7.83;;
8046;SDS011;74083;42.516;23.358;2024-02-28T10:48:16;9.43;;;7.50;;
8046;SDS011;74083;42.516;23.358;2024-02-28T10:51:05;10.47;;;8.13;;
8046;SDS011;74083;42.516;23.358;2024-02-28T10:53:50;12.83;;;8.60;;
8046;SDS011;74083;42.516;23.358;2024-02-28T10:56:54;12.13;;;8.03;;
8046;SDS011;74083;42.516;23.358;2024-02-28T10:59:41;10.40;;;7.63;;
8046;SDS011;74083;42.516;23.358;2024-02-28T11:02:30;11.33;;;8.37;;
8046;SDS011;74083;42.516;23.358;2024-02-28T11:05:17;9.00;;;7.70;;
8046;SDS011;74083;42.516;23.358;2024-02-28T11:08:03;9.67;;;8.07;;
8046;SDS011;74083;42.516;23.358;2024-02-28T11:10:54;9.07;;;7.00;;
8046;SDS011;74083;42.516;23.358;2024-02-28T11:13:41;9.27;;;7.60;;
8046;SDS011;74083;42.516;23.358;2024-02-28T11:16:38;12.50;;;7.90;;
8046;SDS011;74083;42.516;23.358;2024-02-28T11:19:27;10.10;;;8.17;;
8046;SDS011;74083;42.516;23.358;2024-02-28T11:22:14;12.20;;;8.33;;
8046;SDS011;74083;42.516;23.358;2024-02-28T11:25:04;11.10;;;8.40;;
8046;SDS011;74083;42.516;23.358;2024-02-28T11:27:50;9.23;;;7.70;;
8046;SDS011;74083;42.516;23.358;2024-02-28T11:30:36;13.20;;;8.57;;
8046;SDS011;74083;42.516;23.358;2024-02-28T11:33:24;11.10;;;7.90;;
8046;SDS011;74083;42.516;23.358;2024-02-28T11:36:11;10.77;;;8.00;;
8046;SDS011;74083;42.516;23.358;2024-02-28T11:38:58;12.53;;;8.73;;
8046;SDS011;74083;42.516;23.358;2024-02-28T11:41:44;10.87;;;8.33;;
8046;SDS011;74083;42.516;23.358;2024-02-28T11:44:29;10.80;;;8.30;;
8046;SDS011;74083;42.516;23.358;2024-02-28T11:47:15;9.70;;;7.80;;
8046;SDS011;74083;42.516;23.358;2024-02-28T11:50:03;11.57;;;7.93;;
8046;SDS011;74083;42.516;23.358;2024-02-28T11:52:49;13.13;;;8.37;;
8046;SDS011;74083;42.516;23.358;2024-02-28T11:55:35;9.73;;;8.17;;
8046;SDS011;74083;42.516;23.358;2024-02-28T11:58:25;11.50;;;8.50;;
8046;SDS011;74083;42.516;23.358;2024-02-28T12:01:11;13.03;;;9.00;;
8046;SDS011;74083;42.516;23.358;2024-02-28T12:03:58;12.83;;;8.57;;
8046;SDS011;74083;42.516;23.358;2024-02-28T12:06:45;12.60;;;7.90;;
8046;SDS011;74083;42.516;23.358;2024-02-28T12:09:31;12.13;;;8.17;;
8046;SDS011;74083;42.516;23.358;2024-02-28T12:12:16;12.67;;;8.37;;
8046;SDS011;74083;42.516;23.358;2024-02-28T12:15:03;11.77;;;7.87;;
8046;SDS011;74083;42.516;23.358;2024-02-28T12:17:52;11.87;;;8.23;;
8046;SDS011;74083;42.516;23.358;2024-02-28T12:20:37;11.33;;;8.03;;
8046;SDS011;74083;42.516;23.358;2024-02-28T12:23:25;11.77;;;7.53;;
8046;SDS011;74083;42.516;23.358;2024-02-28T12:26:11;11.83;;;8.73;;
8046;SDS011;74083;42.516;23.358;2024-02-28T12:28:57;9.67;;;7.43;;
8046;SDS011;74083;42.516;23.358;2024-02-28T12:31:43;9.43;;;7.90;;
8046;SDS011;74083;42.516;23.358;2024-02-28T12:34:28;9.07;;;7.57;;
8046;SDS011;74083;42.516;23.358;2024-02-28T12:37:14;10.50;;;8.13;;
8046;SDS011;74083;42.516;23.358;2024-02-28T12:40:02;12.97;;;7.93;;
8046;SDS011;74083;42.516;23.358;2024-02-28T12:42:49;12.83;;;8.03;;
8046;SDS011;74083;42.516;23.358;2024-02-28T12:45:34;9.13;;;7.53;;
8046;SDS011;74083;42.516;23.358;2024-02-28T12:48:20;9.47;;;7.33;;
8046;SDS011;74083;42.516;23.358;2024-02-28T12:51:06;10.33;;;7.33;;
8046;SDS011;74083;42.516;23.358;2024-02-28T12:53:55;12.27;;;7.10;;
8046;SDS011;74083;42.516;23.358;2024-02-28T12:56:43;8.77;;;7.63;;
8046;SDS011;74083;42.516;23.358;2024-02-28T12:59:29;9.13;;;7.37;;
8046;SDS011;74083;42.516;23.358;2024-02-28T13:02:14;8.53;;;6.50;;
8046;SDS011;74083;42.516;23.358;2024-02-28T13:05:03;8.43;;;6.37;;
8046;SDS011;74083;42.516;23.358;2024-02-28T13:07:50;10.00;;;6.83;;
8046;SDS011;74083;42.516;23.358;2024-02-28T13:10:36;7.30;;;6.50;;
8046;SDS011;74083;42.516;23.358;2024-02-28T13:13:26;10.67;;;6.87;;
8046;SDS011;74083;42.516;23.358;2024-02-28T13:16:11;8.00;;;6.27;;
8046;SDS011;74083;42.516;23.358;2024-02-28T13:18:57;9.00;;;5.97;;
8046;SDS011;74083;42.516;23.358;2024-02-28T13:21:43;10.07;;;6.00;;
8046;SDS011;74083;42.516;23.358;2024-02-28T13:24:29;8.83;;;6.00;;
8046;SDS011;74083;42.516;23.358;2024-02-28T13:27:15;7.93;;;6.37;;
8046;SDS011;74083;42.516;23.358;2024-02-28T13:30:03;6.97;;;6.10;;
8046;SDS011;74083;42.516;23.358;2024-02-28T13:32:50;9.03;;;5.97;;
8046;SDS011;74083;42.516;23.358;2024-02-28T13:35:36;8.47;;;6.17;;
8046;SDS011;74083;42.516;23.358;2024-02-28T13:38:22;7.37;;;5.50;;
8046;SDS011;74083;42.516;23.358;2024-02-28T13:41:07;6.83;;;5.67;;
8046;SDS011;74083;42.516;23.358;2024-02-28T13:43:53;8.10;;;6.00;;
8046;SDS011;74083;42.516;23.358;2024-02-28T13:46:40;8.23;;;6.10;;
8046;SDS011;74083;42.516;23.358;2024-02-28T13:49:25;9.60;;;5.60;;
8046;SDS011;74083;42.516;23.358;2024-02-28T13:52:11;7.90;;;5.67;;
8046;SDS011;74083;42.516;23.358;2024-02-28T13:54:57;7.00;;;5.63;;
8046;SDS011;74083;42.516;23.358;2024-02-28T13:57:42;7.10;;;5.30;;
8046;SDS011;74083;42.516;23.358;2024-02-28T14:00:28;7.10;;;5.30;;
8046;SDS011;74083;42.516;23.358;2024-02-28T14:03:15;8.53;;;5.63;;
8046;SDS011;74083;42.516;23.358;2024-02-28T14:06:01;6.73;;;5.27;;
8046;SDS011;74083;42.516;23.358;2024-02-28T14:08:47;6.57;;;5.13;;
8046;SDS011;74083;42.516;23.358;2024-02-28T14:11:35;6.43;;;4.83;;
8046;SDS011;74083;42.516;23.358;2024-02-28T14:14:21;8.20;;;5.43;;
8046;SDS011;74083;42.516;23.358;2024-02-28T14:17:07;8.27;;;5.50;;
8046;SDS011;74083;42.516;23.358;2024-02-28T14:19:54;8.70;;;5.33;;
8046;SDS011;74083;42.516;23.358;2024-02-28T14:22:40;6.40;;;5.50;;
8046;SDS011;74083;42.516;23.358;2024-02-28T14:25:26;5.93;;;5.10;;
8046;SDS011;74083;42.516;23.358;2024-02-28T14:28:14;9.67;;;4.93;;
8046;SDS011;74083;42.516;23.358;2024-02-28T14:31:01;8.40;;;5.37;;
8046;SDS011;74083;42.516;23.358;2024-02-28T14:33:46;5.80;;;5.17;;
8046;SDS011;74083;42.516;23.358;2024-02-28T14:36:34;7.23;;;5.23;;
8046;SDS011;74083;42.516;23.358;2024-02-28T14:39:20;6.03;;;5.00;;
8046;SDS011;74083;42.516;23.358;2024-02-28T14:42:06;5.77;;;4.77;;
8046;SDS011;74083;42.516;23.358;2024-02-28T14:44:52;5.93;;;4.60;;
8046;SDS011;74083;42.516;23.358;2024-02-28T14:47:38;6.83;;;4.93;;
8046;SDS011;74083;42.516;23.358;2024-02-28T14:50:24;6.60;;;5.37;;
8046;SDS011;74083;42.516;23.358;2024-02-28T14:53:11;5.63;;;5.03;;
8046;SDS011;74083;42.516;23.358;2024-02-28T14:55:57;7.60;;;6.00;;
8046;SDS011;74083;42.516;23.358;2024-02-28T14:58:42;7.33;;;5.47;;
8046;SDS011;74083;42.516;23.358;2024-02-28T15:01:28;9.20;;;6.23;;
8046;SDS011;74083;42.516;23.358;2024-02-28T15:04:14;7.63;;;6.00;;
8046;SDS011;74083;42.516;23.358;2024-02-28T15:07:00;7.77;;;6.23;;
8046;SDS011;74083;42.516;23.358;2024-02-28T15:09:48;7.23;;;5.30;;
8046;SDS011;74083;42.516;23.358;2024-02-28T15:12:34;7.70;;;6.57;;
8046;SDS011;74083;42.516;23.358;2024-02-28T15:15:21;8.47;;;6.37;;
8046;SDS011;74083;42.516;23.358;2024-02-28T15:18:07;9.47;;;6.47;;
8046;SDS011;74083;42.516;23.358;2024-02-28T15:20:52;9.93;;;6.47;;
8046;SDS011;74083;42.516;23.358;2024-02-28T15:23:38;8.50;;;6.70;;
8046;SDS011;74083;42.516;23.358;2024-02-28T15:26:26;7.47;;;6.13;;
8046;SDS011;74083;42.516;23.358;2024-02-28T15:29:11;8.60;;;6.37;;
8046;SDS011;74083;42.516;23.358;2024-02-28T15:31:57;8.03;;;6.60;;
8046;SDS011;74083;42.516;23.358;2024-02-28T15:34:43;10.17;;;7.17;;
8046;SDS011;74083;42.516;23.358;2024-02-28T15:37:29;8.40;;;6.37;;
8046;SDS011;74083;42.516;23.358;2024-02-28T15:40:15;7.93;;;6.20;;
8046;SDS011;74083;42.516;23.358;2024-02-28T15:43:06;9.93;;;6.23;;
8046;SDS011;74083;42.516;23.358;2024-02-28T15:45:52;7.53;;;6.27;;
8046;SDS011;74083;42.516;23.358;2024-02-28T15:48:38;12.97;;;6.50;;
8046;SDS011;74083;42.516;23.358;2024-02-28T15:51:24;9.33;;;6.13;;
8046;SDS011;74083;42.516;23.358;2024-02-28T15:54:10;10.30;;;6.93;;
8046;SDS011;74083;42.516;23.358;2024-02-28T15:56:56;10.60;;;7.03;;
8046;SDS011;74083;42.516;23.358;2024-02-28T15:59:44;10.03;;;6.70;;
8046;SDS011;74083;42.516;23.358;2024-02-28T16:02:31;9.97;;;6.57;;
8046;SDS011;74083;42.516;23.358;2024-02-28T16:05:17;11.27;;;6.80;;
8046;SDS011;74083;42.516;23.358;2024-02-28T16:08:04;10.13;;;6.73;;
8046;SDS011;74083;42.516;23.358;2024-02-28T16:10:50;7.70;;;6.37;;
8046;SDS011;74083;42.516;23.358;2024-02-28T16:13:36;9.43;;;6.80;;
8046;SDS011;74083;42.516;23.358;2024-02-28T16:16:25;8.63;;;6.90;;
8046;SDS011;74083;42.516;23.358;2024-02-28T16:19:11;9.50;;;6.53;;
8046;SDS011;74083;42.516;23.358;2024-02-28T16:21:57;9.03;;;6.70;;
8046;SDS011;74083;42.516;23.358;2024-02-28T16:24:43;10.10;;;6.50;;
8046;SDS011;74083;42.516;23.358;2024-02-28T16:27:29;9.87;;;6.47;;
8046;SDS011;74083;42.516;23.358;2024-02-28T16:30:15;9.43;;;6.50;;
8046;SDS011;74083;42.516;23.358;2024-02-28T16:33:02;8.27;;;6.17;;
8046;SDS011;74083;42.516;23.358;2024-02-28T16:35:48;6.70;;;5.90;;